createdAt,value
2024-02-02T00:01:23.236Z,93.12
2024-02-02T00:03:51.735Z,93.04
2024-02-02T00:06:20.167Z,92.95
2024-02-02T00:08:48.315Z,93.05
2024-02-02T00:11:19.422Z,93.45
2024-02-02T00:13:50.816Z,93.50
2024-02-02T00:16:18.857Z,93.72
2024-02-02T00:18:47.455Z,94.02
2024-02-02T00:21:16.468Z,94.69
2024-02-02T00:23:44.721Z,95.11
2024-02-02T00:26:12.825Z,95.46
2024-02-02T00:28:48.934Z,95.82
2024-02-02T00:31:22.829Z,96.21
2024-02-02T00:33:51.111Z,96.62
2024-02-02T00:36:19.233Z,96.54
2024-02-02T00:38:47.233Z,96.61
2024-02-02T00:41:17.279Z,96.81
2024-02-02T00:43:45.347Z,96.98
2024-02-02T00:46:13.461Z,96.89
2024-02-02T00:48:44.069Z,96.86
2024-02-02T00:51:12.358Z,96.82
2024-02-02T00:53:46.119Z,97.06
2024-02-02T00:56:14.874Z,97.22
2024-02-02T00:58:43.010Z,97.43
2024-02-02T01:02:37.990Z,97.48
2024-02-02T01:05:06.746Z,97.43
2024-02-02T01:07:35.162Z,97.59
2024-02-02T01:10:07.211Z,97.59
2024-02-02T01:12:36.653Z,97.52
2024-02-02T01:15:05.404Z,97.61
2024-02-02T01:17:33.717Z,97.79
2024-02-02T01:20:05.054Z,97.88
2024-02-02T01:22:34.472Z,97.74
2024-02-02T01:25:02.658Z,98.23
2024-02-02T01:27:30.867Z,98.13
2024-02-02T01:29:59.007Z,98.39
2024-02-02T01:32:27.143Z,98.50
2024-02-02T01:38:16.487Z,98.63
2024-02-02T01:40:45.303Z,98.83
2024-02-02T01:43:14.201Z,98.95
2024-02-02T01:45:42.372Z,99.10
2024-02-02T01:48:10.675Z,99.10
2024-02-02T01:50:38.925Z,99.04
2024-02-02T01:53:07.236Z,99.10
2024-02-02T01:55:35.809Z,99.22
2024-02-02T01:58:04.147Z,99.23
2024-02-02T02:00:32.692Z,99.32
2024-02-02T02:03:01.311Z,99.35
2024-02-02T02:05:29.602Z,99.35
2024-02-02T02:07:57.680Z,99.60
2024-02-02T02:10:26.426Z,99.69
2024-02-02T02:12:54.666Z,99.76
2024-02-02T02:15:25.004Z,99.91
2024-02-02T02:17:53.505Z,100.00
2024-02-02T02:20:27.521Z,99.99
2024-02-02T02:22:55.973Z,99.99
2024-02-02T02:25:24.088Z,100.00
2024-02-02T02:27:52.195Z,100.00
2024-02-02T02:30:20.479Z,100.00
2024-02-02T02:32:48.754Z,100.00
2024-02-02T02:35:17.196Z,100.00
2024-02-02T02:37:45.218Z,100.00
2024-02-02T02:40:13.888Z,100.00
2024-02-02T02:42:42.038Z,100.00
2024-02-02T02:45:10.200Z,100.00
2024-02-02T02:47:38.640Z,100.00
2024-02-02T02:50:07.385Z,100.00
2024-02-02T02:52:36.013Z,100.00
2024-02-02T02:55:06.146Z,100.00
2024-02-02T02:57:34.473Z,100.00
2024-02-02T03:00:03.786Z,99.93
2024-02-02T03:02:32.022Z,99.91
2024-02-02T03:05:00.309Z,99.82
2024-02-02T03:07:28.417Z,99.73
2024-02-02T03:09:56.656Z,99.53
2024-02-02T03:12:24.841Z,99.32
2024-02-02T03:14:53.173Z,98.96
2024-02-02T03:17:21.290Z,98.63
2024-02-02T03:19:49.440Z,98.51
2024-02-02T03:22:17.434Z,98.14
2024-02-02T03:24:45.630Z,97.91
2024-02-02T03:27:13.765Z,97.75
2024-02-02T03:29:41.981Z,97.51
2024-02-02T03:32:10.134Z,97.37
2024-02-02T03:34:38.719Z,97.18
2024-02-02T03:37:07.195Z,97.15
2024-02-02T03:39:35.780Z,96.87
2024-02-02T03:42:05.647Z,96.72
2024-02-02T03:44:33.790Z,96.67
2024-02-02T03:47:02.136Z,96.60
2024-02-02T03:49:30.469Z,96.32
2024-02-02T03:51:58.666Z,95.96
2024-02-02T03:54:26.933Z,95.53
2024-02-02T03:56:55.796Z,95.27
2024-02-02T03:59:24.071Z,95.14
2024-02-02T04:01:52.561Z,94.80
2024-02-02T04:04:20.808Z,94.70
2024-02-02T04:06:49.023Z,94.50
2024-02-02T04:09:17.107Z,94.34
2024-02-02T04:11:45.309Z,94.09
2024-02-02T04:17:39.005Z,93.99
2024-02-02T04:20:07.966Z,93.84
2024-02-02T04:22:36.147Z,93.52
2024-02-02T04:25:04.614Z,93.57
2024-02-02T04:27:32.725Z,93.66
2024-02-02T04:30:00.930Z,93.46
2024-02-02T04:32:29.376Z,93.25
2024-02-02T04:34:57.476Z,93.25
2024-02-02T04:37:26.486Z,93.24
2024-02-02T04:39:54.741Z,93.31
2024-02-02T04:42:22.906Z,93.22
2024-02-02T04:44:51.177Z,93.17
2024-02-02T04:47:19.335Z,93.21
2024-02-02T04:49:47.615Z,93.18
2024-02-02T04:52:15.985Z,93.11
2024-02-02T04:54:44.194Z,93.10
2024-02-02T04:57:12.419Z,93.19
2024-02-02T04:59:40.710Z,93.14
2024-02-02T05:02:09.039Z,93.10
2024-02-02T05:04:37.436Z,93.06
2024-02-02T05:07:05.665Z,92.98
2024-02-02T05:09:33.820Z,92.93
2024-02-02T05:12:02.168Z,93.02
2024-02-02T05:14:30.383Z,92.98
2024-02-02T05:16:58.511Z,92.94
2024-02-02T05:19:27.048Z,92.82
2024-02-02T05:21:55.520Z,92.85
2024-02-02T05:24:38.284Z,92.78
2024-02-02T05:27:14.430Z,92.80
2024-02-02T05:29:45.324Z,92.74
2024-02-02T05:32:14.014Z,92.60
2024-02-02T05:34:42.883Z,92.48
2024-02-02T05:37:11.149Z,92.56
2024-02-02T05:39:39.311Z,92.66
2024-02-02T05:42:07.480Z,92.55
2024-02-02T05:44:35.633Z,92.54
2024-02-02T05:47:03.680Z,92.51
2024-02-02T05:49:31.791Z,92.49
2024-02-02T05:52:01.432Z,92.22
2024-02-02T05:54:29.814Z,92.36
2024-02-02T05:56:58.114Z,92.37
2024-02-02T05:59:29.116Z,92.22
2024-02-02T06:01:57.218Z,92.18
2024-02-02T06:04:25.438Z,92.03
2024-02-02T06:06:53.715Z,92.15
2024-02-02T06:09:22.038Z,92.30
2024-02-02T06:11:50.132Z,91.98
2024-02-02T06:14:18.414Z,91.64
2024-02-02T06:16:48.220Z,91.85
2024-02-02T06:19:16.470Z,91.74
2024-02-02T06:21:44.897Z,91.76
2024-02-02T06:24:13.029Z,91.99
2024-02-02T06:26:41.277Z,92.37
2024-02-02T06:29:34.108Z,92.03
2024-02-02T06:32:02.298Z,91.89
2024-02-02T06:34:30.956Z,91.89
2024-02-02T06:36:59.278Z,91.77
2024-02-02T06:39:27.350Z,91.54
2024-02-02T06:41:55.653Z,91.41
2024-02-02T06:44:24.678Z,91.23
2024-02-02T06:46:52.828Z,91.03
2024-02-02T06:49:21.236Z,90.94
2024-02-02T06:51:49.468Z,90.84
2024-02-02T06:54:43.007Z,90.71
2024-02-02T06:57:19.125Z,90.58
2024-02-02T06:59:59.069Z,90.60
2024-02-02T07:02:36.648Z,90.35
2024-02-02T07:05:05.211Z,90.06
2024-02-02T07:07:33.334Z,90.13
2024-02-02T07:10:02.325Z,90.20
2024-02-02T07:12:36.209Z,90.54
2024-02-02T07:15:05.735Z,90.52
2024-02-02T07:17:41.877Z,90.47
2024-02-02T07:20:31.748Z,90.22
2024-02-02T07:23:02.579Z,90.30
2024-02-02T07:25:38.593Z,90.28
2024-02-02T07:28:43.090Z,90.09
2024-02-02T07:31:22.562Z,90.12
2024-02-02T07:33:51.543Z,90.03
2024-02-02T07:36:31.755Z,90.18
2024-02-02T07:38:59.960Z,90.01
2024-02-02T07:41:30.280Z,89.77
2024-02-02T07:44:00.978Z,89.45
2024-02-02T07:46:30.142Z,89.81
2024-02-02T07:48:58.718Z,89.54
2024-02-02T07:51:46.186Z,89.55
2024-02-02T07:54:14.467Z,89.46
2024-02-02T07:56:42.541Z,89.45
2024-02-02T07:59:10.630Z,89.04
2024-02-02T08:01:39.179Z,88.24
2024-02-02T08:04:07.290Z,88.24
2024-02-02T08:06:35.650Z,88.14
2024-02-02T08:09:04.078Z,88.22
2024-02-02T08:11:36.932Z,88.19
2024-02-02T08:14:05.227Z,88.15
2024-02-02T08:16:33.382Z,87.91
2024-02-02T08:19:01.593Z,87.79
2024-02-02T08:21:30.024Z,87.80
2024-02-02T08:23:59.761Z,87.22
2024-02-02T08:26:28.279Z,87.15
2024-02-02T08:28:56.314Z,86.80
2024-02-02T08:31:25.069Z,86.74
2024-02-02T08:33:53.465Z,86.86
2024-02-02T08:39:47.241Z,86.40
2024-02-02T08:42:25.225Z,86.08
2024-02-02T08:44:54.995Z,85.93
2024-02-02T08:47:25.116Z,85.61
2024-02-02T08:49:57.563Z,85.49
2024-02-02T08:52:34.410Z,85.34
2024-02-02T08:55:08.056Z,84.92
2024-02-02T08:57:36.406Z,85.03
2024-02-02T09:00:17.321Z,84.97
2024-02-02T09:03:02.191Z,85.17
2024-02-02T09:05:55.145Z,85.39
2024-02-02T09:08:23.372Z,85.35
2024-02-02T09:11:00.837Z,85.17
2024-02-02T09:13:35.684Z,84.48
2024-02-02T09:16:05.344Z,84.23
2024-02-02T09:18:34.999Z,84.41
2024-02-02T09:21:05.265Z,84.16
2024-02-02T09:23:34.458Z,84.34
2024-02-02T09:26:17.728Z,83.92
2024-02-02T09:28:47.179Z,83.44
2024-02-02T09:31:25.017Z,83.32
2024-02-02T09:33:56.485Z,83.47
2024-02-02T09:36:27.902Z,83.62
2024-02-02T09:39:01.701Z,83.36
2024-02-02T09:41:35.869Z,83.05
2024-02-02T09:44:42.155Z,83.21
2024-02-02T09:47:27.906Z,83.29
2024-02-02T09:50:20.751Z,83.25
2024-02-02T09:53:07.731Z,83.35
2024-02-02T09:55:38.863Z,83.77
2024-02-02T09:58:36.762Z,83.52
2024-02-02T10:01:21.310Z,83.24
2024-02-02T10:04:22.445Z,82.88
2024-02-02T10:07:10.501Z,83.17
2024-02-02T10:10:03.331Z,83.38
2024-02-02T10:13:18.260Z,83.33
2024-02-02T10:16:06.208Z,81.83
2024-02-02T10:18:47.352Z,82.05
2024-02-02T10:21:34.789Z,82.45
2024-02-02T10:24:33.411Z,81.85
2024-02-02T10:27:41.739Z,81.53
2024-02-02T10:30:10.619Z,81.90
2024-02-02T10:33:07.499Z,81.67
2024-02-02T10:36:09.150Z,80.89
2024-02-02T10:39:12.101Z,80.33
2024-02-02T10:41:58.033Z,80.36
2024-02-02T10:44:54.273Z,80.07
2024-02-02T10:47:39.141Z,79.80
2024-02-02T10:50:26.785Z,79.78
2024-02-02T10:53:03.961Z,79.44
2024-02-02T10:55:38.166Z,79.12
2024-02-02T10:58:16.712Z,79.03
2024-02-02T11:00:56.534Z,79.15
2024-02-02T11:03:40.658Z,79.54
2024-02-02T11:06:33.029Z,79.58
2024-02-02T11:09:36.668Z,79.29
2024-02-02T11:12:43.460Z,79.00
2024-02-02T11:15:17.632Z,78.30
2024-02-02T11:18:03.231Z,77.08
2024-02-02T11:20:37.338Z,77.28
2024-02-02T11:23:27.577Z,77.73
2024-02-02T11:26:36.278Z,78.08
2024-02-02T11:29:45.679Z,76.07
2024-02-02T11:32:40.595Z,76.56
2024-02-02T11:35:21.805Z,76.27
2024-02-02T11:37:55.997Z,76.72
2024-02-02T11:40:26.618Z,76.43
2024-02-02T11:42:58.188Z,75.26
2024-02-02T11:45:34.912Z,75.94
2024-02-02T11:48:05.902Z,76.88
2024-02-02T11:50:53.741Z,76.27
2024-02-02T11:53:37.280Z,76.17
2024-02-02T11:56:11.578Z,76.59
2024-02-02T11:58:44.548Z,76.58
2024-02-02T12:01:18.320Z,76.18
2024-02-02T12:04:10.743Z,75.29
2024-02-02T12:07:16.630Z,74.79
2024-02-02T12:09:49.643Z,75.66
2024-02-02T12:12:33.123Z,76.16
2024-02-02T12:15:04.483Z,76.78
2024-02-02T12:17:32.873Z,77.56
2024-02-02T12:20:33.432Z,78.48
2024-02-02T12:23:02.038Z,79.51
2024-02-02T12:25:30.874Z,80.27
2024-02-02T12:27:59.009Z,80.84
2024-02-02T12:30:27.389Z,81.10
2024-02-02T12:33:00.193Z,81.70
2024-02-02T12:35:32.167Z,82.33
2024-02-02T12:38:05.354Z,82.52
2024-02-02T12:40:34.402Z,82.84
2024-02-02T12:43:03.599Z,83.26
2024-02-02T12:45:37.436Z,83.37
2024-02-02T12:48:11.921Z,83.38
2024-02-02T12:50:40.187Z,83.61
2024-02-02T12:53:09.115Z,83.52
2024-02-02T12:55:37.536Z,83.65
2024-02-02T12:58:05.864Z,83.71
2024-02-02T13:00:34.231Z,83.76
2024-02-02T13:03:06.316Z,84.01
2024-02-02T13:05:38.778Z,84.20
2024-02-02T13:08:09.624Z,84.27
2024-02-02T13:10:37.893Z,83.87
2024-02-02T13:13:22.344Z,83.26
2024-02-02T13:15:50.642Z,82.98
2024-02-02T13:18:24.030Z,81.82
2024-02-02T13:20:55.580Z,82.05
2024-02-02T13:23:26.392Z,82.19
2024-02-02T13:26:02.199Z,82.52
2024-02-02T13:28:42.610Z,82.10
2024-02-02T13:31:14.591Z,82.16
2024-02-02T13:34:06.069Z,81.55
2024-02-02T13:36:40.777Z,81.54
2024-02-02T13:39:19.737Z,81.47
2024-02-02T13:41:49.166Z,81.39
2024-02-02T13:44:24.056Z,81.37
2024-02-02T13:46:53.938Z,81.41
2024-02-02T13:50:20.144Z,81.60
2024-02-02T13:52:41.185Z,81.81
2024-02-02T13:55:09.572Z,81.78
2024-02-02T13:57:38.604Z,82.06
2024-02-02T14:00:08.820Z,81.98
2024-02-02T14:02:36.945Z,82.29
2024-02-02T14:05:08.968Z,82.46
2024-02-02T14:07:39.514Z,82.52
2024-02-02T14:10:10.110Z,82.58
2024-02-02T14:12:44.910Z,82.73
2024-02-02T14:15:15.085Z,82.72
2024-02-02T14:17:43.637Z,82.86
2024-02-02T14:20:20.211Z,83.09
2024-02-02T14:22:49.509Z,83.18
2024-02-02T14:25:32.712Z,83.26
2024-02-02T14:28:00.813Z,83.37
2024-02-02T14:30:29.652Z,83.36
2024-02-02T14:33:09.123Z,83.28
2024-02-02T14:35:47.740Z,83.30
2024-02-02T14:38:18.281Z,83.40
2024-02-02T14:40:49.609Z,83.39
2024-02-02T14:43:17.847Z,83.46
2024-02-02T14:45:51.118Z,83.52
2024-02-02T14:48:20.760Z,83.68
2024-02-02T14:50:57.936Z,83.89
2024-02-02T14:53:28.084Z,83.70
2024-02-02T14:55:57.286Z,83.91
2024-02-02T14:58:26.458Z,84.01
2024-02-02T15:00:55.694Z,84.13
2024-02-02T15:03:25.182Z,84.30
2024-02-02T15:06:00.507Z,84.46
2024-02-02T15:08:28.883Z,84.38
2024-02-02T15:11:00.586Z,84.47
2024-02-02T15:13:29.023Z,84.60
2024-02-02T15:15:57.163Z,84.71
2024-02-02T15:18:33.172Z,84.83
2024-02-02T15:21:05.551Z,84.89
2024-02-02T15:23:36.940Z,84.92
2024-02-02T15:26:05.125Z,85.04
2024-02-02T15:28:39.792Z,84.95
2024-02-02T15:31:08.601Z,85.06
2024-02-02T15:33:38.114Z,85.17
2024-02-02T15:36:06.463Z,85.28
2024-02-02T15:38:34.895Z,85.46
2024-02-02T15:41:10.285Z,85.51
2024-02-02T15:43:41.294Z,85.43
2024-02-02T15:46:25.309Z,85.35
2024-02-02T15:49:14.446Z,85.67
2024-02-02T15:51:43.301Z,85.73
2024-02-02T15:54:11.491Z,85.91
2024-02-02T15:56:40.558Z,86.11
2024-02-02T15:59:08.791Z,86.12
2024-02-02T16:01:37.409Z,86.40
2024-02-02T16:04:08.792Z,86.48
2024-02-02T16:06:36.928Z,86.40
2024-02-02T16:09:07.337Z,86.40
2024-02-02T16:11:36.974Z,86.42
2024-02-02T16:14:05.060Z,86.33
2024-02-02T16:16:33.193Z,86.47
2024-02-02T16:19:01.414Z,86.46
2024-02-02T16:21:29.639Z,86.41
2024-02-02T16:23:57.879Z,86.46
2024-02-02T16:26:26.078Z,86.35
2024-02-02T16:28:54.211Z,86.35
2024-02-02T16:31:27.339Z,86.32
2024-02-02T16:33:55.646Z,86.13
2024-02-02T16:36:29.156Z,85.93
2024-02-02T16:39:00.445Z,85.63
2024-02-02T16:41:37.891Z,85.88
2024-02-02T16:44:07.372Z,86.15
2024-02-02T16:46:43.301Z,86.03
2024-02-02T16:49:18.829Z,86.06
2024-02-02T16:51:51.853Z,85.91
2024-02-02T16:54:51.709Z,85.83
2024-02-02T16:57:30.634Z,85.18
2024-02-02T16:59:59.064Z,84.97
2024-02-02T17:05:56.193Z,84.84
2024-02-02T17:08:27.204Z,84.74
2024-02-02T17:10:59.766Z,84.61
2024-02-02T17:13:27.880Z,84.68
2024-02-02T17:15:56.897Z,84.67
2024-02-02T17:18:25.241Z,84.57
2024-02-02T17:21:11.110Z,84.61
2024-02-02T17:23:40.411Z,84.73
2024-02-02T17:26:18.418Z,84.76
2024-02-02T17:28:50.444Z,84.64
2024-02-02T17:31:20.657Z,84.71
2024-02-02T17:33:48.710Z,84.76
2024-02-02T17:36:18.101Z,84.79
2024-02-02T17:38:53.773Z,84.83
2024-02-02T17:41:25.897Z,84.89
2024-02-02T17:43:57.917Z,84.97
2024-02-02T17:46:28.933Z,84.98
2024-02-02T17:48:59.521Z,85.02
2024-02-02T17:51:30.541Z,85.05
2024-02-02T17:54:01.922Z,85.12
2024-02-02T17:56:35.258Z,85.02
2024-02-02T17:59:06.273Z,85.13
2024-02-02T18:01:37.592Z,85.26
2024-02-02T18:04:08.664Z,85.31
2024-02-02T18:06:40.136Z,85.25
2024-02-02T18:09:10.399Z,85.36
2024-02-02T18:11:44.296Z,85.29
2024-02-02T18:14:15.171Z,85.20
2024-02-02T18:16:43.398Z,85.22
2024-02-02T18:19:14.153Z,85.34
2024-02-02T18:21:42.534Z,85.36
2024-02-02T18:24:18.742Z,85.40
2024-02-02T18:26:46.861Z,85.36
2024-02-02T18:29:18.066Z,85.39
2024-02-02T18:31:47.084Z,85.42
2024-02-02T18:34:15.276Z,85.37
2024-02-02T18:36:50.679Z,85.41
2024-02-02T18:39:38.488Z,85.56
2024-02-02T18:42:10.822Z,85.50
2024-02-02T18:44:39.335Z,85.47
2024-02-02T18:47:08.709Z,85.41
2024-02-02T18:49:38.452Z,85.45
2024-02-02T18:52:07.342Z,85.43
2024-02-02T18:54:37.947Z,85.42
2024-02-02T18:57:07.070Z,85.35
2024-02-02T18:59:38.452Z,85.52
2024-02-02T19:02:06.677Z,85.41
2024-02-02T19:04:35.740Z,85.50
2024-02-02T19:07:06.267Z,85.65
2024-02-02T19:09:34.774Z,85.59
2024-02-02T19:12:03.270Z,85.75
2024-02-02T19:14:31.280Z,85.89
2024-02-02T19:17:00.092Z,86.02
2024-02-02T19:19:28.396Z,86.16
2024-02-02T19:21:56.590Z,86.32
2024-02-02T19:24:27.187Z,86.46
2024-02-02T19:26:56.229Z,86.60
2024-02-02T19:29:24.350Z,86.46
2024-02-02T19:31:52.359Z,86.47
2024-02-02T19:34:20.558Z,86.36
2024-02-02T19:36:48.872Z,86.47
2024-02-02T19:39:17.261Z,86.66
2024-02-02T19:41:45.388Z,86.77
2024-02-02T19:44:13.583Z,86.91
2024-02-02T19:46:44.502Z,87.04
2024-02-02T19:49:12.755Z,86.88
2024-02-02T19:51:41.115Z,87.07
2024-02-02T19:54:10.021Z,87.44
2024-02-02T19:56:38.132Z,87.29
2024-02-02T19:59:06.321Z,87.26
2024-02-02T20:01:38.768Z,87.25
2024-02-02T20:04:07.728Z,87.13
2024-02-02T20:06:38.556Z,86.85
2024-02-02T20:09:07.579Z,86.82
2024-02-02T20:11:35.817Z,86.97
2024-02-02T20:14:03.904Z,86.88
2024-02-02T20:16:31.993Z,87.20
2024-02-02T20:19:00.180Z,87.64
2024-02-02T20:21:29.548Z,87.99
2024-02-02T20:24:00.136Z,87.95
2024-02-02T20:26:28.283Z,87.80
2024-02-02T20:28:56.457Z,87.39
2024-02-02T20:31:27.733Z,87.37
2024-02-02T20:33:57.896Z,87.55
2024-02-02T20:36:31.745Z,87.59
2024-02-02T20:39:00.062Z,87.55
2024-02-02T20:41:28.389Z,87.59
2024-02-02T20:43:58.610Z,87.59
2024-02-02T20:46:27.143Z,87.71
2024-02-02T20:48:55.517Z,87.68
2024-02-02T20:51:23.729Z,87.85
2024-02-02T20:53:52.277Z,87.97
2024-02-02T20:56:20.396Z,88.11
2024-02-02T20:58:50.661Z,88.24
2024-02-02T21:01:18.758Z,88.21
2024-02-02T21:03:47.006Z,88.22
2024-02-02T21:09:28.496Z,88.20
2024-02-02T21:11:56.776Z,88.26
2024-02-02T21:14:24.957Z,88.29
2024-02-02T21:16:53.175Z,88.39
2024-02-02T21:19:21.397Z,88.42
2024-02-02T21:21:50.134Z,88.51
2024-02-02T21:24:18.714Z,88.54
2024-02-02T21:26:48.298Z,88.54
2024-02-02T21:29:21.530Z,88.71
2024-02-02T21:31:50.274Z,88.70
2024-02-02T21:34:26.104Z,88.86
2024-02-02T21:36:54.329Z,89.05
2024-02-02T21:39:25.052Z,89.15
2024-02-02T21:41:53.727Z,89.17
2024-02-02T21:44:26.979Z,89.35
2024-02-02T21:46:55.089Z,89.54
2024-02-02T21:49:30.918Z,89.55
2024-02-02T21:52:06.363Z,89.47
2024-02-02T21:54:41.148Z,89.64
2024-02-02T21:57:10.575Z,89.63
2024-02-02T21:59:43.704Z,89.71
2024-02-02T22:02:18.052Z,89.66
2024-02-02T22:04:53.895Z,89.69
2024-02-02T22:07:31.167Z,89.74
2024-02-02T22:10:02.024Z,89.78
2024-02-02T22:12:32.719Z,89.86
2024-02-02T22:15:11.173Z,89.83
2024-02-02T22:17:42.180Z,89.90
2024-02-02T22:20:14.582Z,89.85
2024-02-02T22:22:58.075Z,89.80
2024-02-02T22:25:26.281Z,89.92
2024-02-02T22:27:59.960Z,90.04
2024-02-02T22:30:34.023Z,90.28
2024-02-02T22:33:03.848Z,90.65
2024-02-02T22:35:40.800Z,91.18
2024-02-02T22:38:09.023Z,91.00
2024-02-02T22:40:37.247Z,90.94
2024-02-02T22:43:09.900Z,91.12
2024-02-02T22:45:38.124Z,91.18
2024-02-02T22:48:06.587Z,91.26
2024-02-02T22:50:39.600Z,91.48
2024-02-02T22:53:18.148Z,91.77
2024-02-02T22:55:48.660Z,91.58
2024-02-02T22:58:17.352Z,91.40
2024-02-02T23:00:49.419Z,91.00
2024-02-02T23:03:20.305Z,91.23
2024-02-02T23:05:54.757Z,91.50
2024-02-02T23:08:25.874Z,91.60
2024-02-02T23:10:59.225Z,91.59
2024-02-02T23:13:29.178Z,91.47
2024-02-02T23:16:00.734Z,91.35
2024-02-02T23:18:31.744Z,90.96
2024-02-02T23:21:01.139Z,90.93
2024-02-02T23:23:30.343Z,91.05
2024-02-02T23:26:06.155Z,91.01
2024-02-02T23:28:40.061Z,91.15
2024-02-02T23:31:12.240Z,90.98
2024-02-02T23:33:42.293Z,90.77
2024-02-02T23:36:14.207Z,90.60
2024-02-02T23:38:45.176Z,90.57
2024-02-02T23:41:17.050Z,90.33
2024-02-02T23:43:46.097Z,90.06
2024-02-02T23:46:18.984Z,89.73
2024-02-02T23:48:50.697Z,89.82
2024-02-02T23:51:44.288Z,89.57
2024-02-02T23:54:13.947Z,89.61
2024-02-02T23:56:42.522Z,89.48
2024-02-02T23:59:13.406Z,89.41
